Terminal Aerodrome Forecast
Issued by NWS Charleston, WV

Current Version | Previous Version | Text Only | Print | Product List | Glossary Off
Versions: 1 2 3 4 5 6 7 8 9 10 11 12 13 14 15 16 17 18 19 20 21 22

000
FTUS41 KRLX 040558
TAFCRW
TAF
KCRW 040558Z 0406/0506 00000KT P6SM BKN035
     FM041000 00000KT 3SM BR HZ BKN015
     FM041500 00000KT P6SM SCT015
     FM042000 27006KT P6SM SCT035
     FM050000 VRB03KT P6SM BKN060=

USA.gov is the U.S. government's official web portal to all federal, state and local government web resources and services.